createdAt,value
2022-10-11T00:02:48.010Z,12.46
2022-10-11T00:32:52.157Z,11.57
2022-10-11T01:02:56.452Z,10.93
2022-10-11T01:33:08.380Z,10.36
2022-10-11T03:04:28.295Z,9.01
2022-10-11T03:34:32.694Z,8.83
2022-10-11T04:04:37.968Z,8.44
2022-10-11T04:34:42.653Z,8.12
2022-10-11T05:04:46.994Z,7.86
2022-10-11T05:34:51.093Z,7.82
2022-10-11T06:04:55.188Z,8.00
2022-10-11T06:34:59.330Z,8.50
2022-10-11T07:05:03.746Z,8.40
2022-10-11T07:35:09.237Z,9.07
2022-10-11T08:05:13.409Z,10.09
2022-10-11T08:35:17.905Z,12.49
2022-10-11T09:05:23.166Z,20.93
2022-10-11T09:35:30.117Z,26.25
2022-10-11T10:05:36.927Z,27.86
2022-10-11T10:35:44.573Z,30.06
2022-10-11T11:05:56.184Z,30.86
2022-10-11T11:36:05.315Z,31.18
2022-10-11T12:06:24.979Z,32.33
2022-10-11T12:36:40.896Z,29.92
2022-10-11T13:06:49.001Z,29.70
2022-10-11T13:36:57.836Z,27.88
2022-10-11T14:07:03.806Z,25.45
2022-10-11T14:37:08.146Z,27.61
2022-10-11T15:07:13.567Z,27.48
2022-10-11T15:37:17.851Z,23.78
2022-10-11T16:07:22.248Z,16.72
2022-10-11T16:37:26.740Z,14.35
2022-10-11T17:07:32.322Z,12.92
2022-10-11T17:37:36.622Z,11.97
2022-10-11T18:07:41.066Z,11.39
2022-10-11T18:37:45.219Z,10.73
2022-10-11T19:07:49.397Z,10.36
2022-10-11T19:37:54.707Z,10.09
2022-10-11T20:07:58.965Z,9.83
2022-10-11T20:38:03.208Z,9.37
2022-10-11T21:08:07.823Z,9.12
2022-10-11T21:38:13.177Z,8.88
2022-10-11T22:08:18.694Z,8.58
2022-10-11T22:38:22.906Z,8.42
2022-10-11T23:08:27.311Z,8.32
2022-10-11T23:38:31.549Z,8.12
